Time;durP1;ratioP1;P1;durP2;ratioP2;P2;SDS_P1;SDS_P2;PMS_P1;PMS_P2;Temp;Humidity;BMP_temperature;BMP_pressure;BME280_temperature;BME280_humidity;BME280_pressure;Samples;Min_cycle;Max_cycle;Signal;HPM_P1;HPM_P2
2022/10/14 00:01:24;;;;;;;104.40;50.75;;;12.30;99.90;;;;;;7376487;19;20022;-43
2022/10/14 00:03:51;;;;;;;88.53;47.72;;;12.10;99.90;;;;;;7374572;19;20717;-45
2022/10/14 00:06:22;;;;;;;80.32;46.63;;;12.10;99.90;;;;;;7373757;19;20049;-41
2022/10/14 00:08:50;;;;;;;78.93;46.00;;;12.00;99.90;;;;;;7374865;19;20576;-45
2022/10/14 00:11:24;;;;;;;77.80;44.47;;;11.90;99.90;;;;;;7374741;19;20026;-44
2022/10/14 00:13:53;;;;;;;81.93;44.22;;;11.80;99.90;;;;;;7374587;19;20034;-47
2022/10/14 00:16:25;;;;;;;71.25;40.72;;;11.70;99.90;;;;;;7372685;19;20378;-50
2022/10/14 00:18:51;;;;;;;;;;;11.60;99.90;;;;;;7374439;19;20022;-45
2022/10/14 00:21:18;;;;;;;62.05;37.95;;;11.60;99.90;;;;;;7376260;19;19921;-47
2022/10/14 00:23:45;;;;;;;101.82;42.47;;;11.40;99.90;;;;;;7376261;19;20606;-41
2022/10/14 00:26:21;;;;;;;221.32;39.88;;;11.40;99.90;;;;;;7373185;19;20022;-49
2022/10/14 00:28:51;;;;;;;350.55;47.33;;;11.30;99.90;;;;;;7370704;19;20019;-48
2022/10/14 00:31:17;;;;;;;316.13;44.17;;;11.10;99.90;;;;;;7373386;19;20021;-46
2022/10/14 00:33:50;;;;;;;222.02;42.03;;;11.00;99.90;;;;;;7375606;19;20469;-43
2022/10/14 00:36:20;;;;;;;152.57;42.72;;;11.00;99.90;;;;;;7373498;19;20335;-44
2022/10/14 00:38:47;;;;;;;283.83;48.45;;;11.00;99.90;;;;;;7371551;19;20529;-47
2022/10/14 00:41:20;;;;;;;318.17;50.72;;;11.00;99.90;;;;;;7371272;19;20047;-41
2022/10/14 00:44:00;;;;;;;422.08;53.47;;;11.00;99.90;;;;;;7376542;19;20058;-42
2022/10/14 00:46:33;;;;;;;434.45;61.55;;;11.00;99.90;;;;;;7371845;19;20086;-47
2022/10/14 00:49:07;;;;;;;428.27;59.00;;;11.10;99.90;;;;;;7373493;19;20082;-42
2022/10/14 00:51:35;;;;;;;360.08;54.45;;;11.10;99.90;;;;;;7369434;19;20916;-48
2022/10/14 00:54:02;;;;;;;287.33;47.25;;;11.10;99.90;;;;;;7371166;19;20116;-48
2022/10/14 00:56:30;;;;;;;405.73;59.10;;;11.10;99.90;;;;;;7375501;19;20021;-47
2022/10/14 00:58:58;;;;;;;399.15;54.45;;;11.20;99.90;;;;;;7372199;19;20019;-45
2022/10/14 01:01:24;;;;;;;384.30;51.97;;;11.20;99.90;;;;;;7370368;19;20022;-50
2022/10/14 01:03:53;;;;;;;451.02;59.63;;;11.20;99.90;;;;;;7373957;19;20504;-47
2022/10/14 01:06:47;;;;;;;319.48;50.03;;;11.20;99.90;;;;;;7369882;19;20456;-49
2022/10/14 01:09:48;;;;;;;467.15;65.95;;;11.20;99.90;;;;;;7373670;19;20010;-47
2022/10/14 01:12:23;;;;;;;398.30;58.05;;;11.20;99.90;;;;;;7372561;19;20022;-42
2022/10/14 01:15:16;;;;;;;306.67;48.10;;;11.20;99.90;;;;;;7374629;19;20011;-44
2022/10/14 01:17:50;;;;;;;426.13;57.50;;;11.20;99.90;;;;;;7373744;19;20015;-49
2022/10/14 01:20:48;;;;;;;233.45;45.50;;;11.10;99.90;;;;;;7375025;19;20822;-47
2022/10/14 01:23:14;;;;;;;403.63;55.78;;;11.10;99.90;;;;;;7368307;19;20028;-48
2022/10/14 01:26:20;;;;;;;325.50;49.55;;;11.20;99.90;;;;;;7374100;19;20031;-48
2022/10/14 01:28:56;;;;;;;358.33;51.10;;;11.20;99.90;;;;;;7374483;19;20018;-48
2022/10/14 01:31:28;;;;;;;263.52;44.90;;;11.10;99.90;;;;;;7370885;19;20824;-48
2022/10/14 01:33:58;;;;;;;166.55;35.42;;;11.20;99.90;;;;;;7375420;19;20026;-47
2022/10/14 01:36:51;;;;;;;204.07;33.95;;;11.20;99.90;;;;;;7372578;19;20022;-50
2022/10/14 01:39:26;;;;;;;301.85;41.95;;;11.20;99.90;;;;;;7369878;19;20022;-45
2022/10/14 01:42:19;;;;;;;227.80;38.13;;;11.20;99.90;;;;;;7370909;19;20375;-47
2022/10/14 01:44:55;;;;;;;242.38;39.65;;;11.20;99.90;;;;;;7371608;19;20616;-46
2022/10/14 01:47:25;;;;;;;283.60;42.80;;;11.20;99.90;;;;;;7370535;19;20019;-45
2022/10/14 01:49:58;;;;;;;231.63;37.22;;;11.20;99.90;;;;;;7368534;19;20081;-45
2022/10/14 01:52:30;;;;;;;414.80;53.47;;;11.20;99.90;;;;;;7371110;19;20030;-46
2022/10/14 01:54:59;;;;;;;;;;;11.20;99.90;;;;;;7371568;19;20052;-41
2022/10/14 01:57:29;;;;;;;249.07;30.38;;;11.20;99.90;;;;;;7372170;19;19926;-42
2022/10/14 01:59:56;;;;;;;205.77;28.08;;;11.10;99.90;;;;;;7370786;19;20493;-43
2022/10/14 02:02:24;;;;;;;239.35;31.25;;;11.10;99.90;;;;;;7367355;19;20022;-41
2022/10/14 02:04:50;;;;;;;215.90;28.83;;;11.10;99.90;;;;;;7371585;19;20019;-43
2022/10/14 02:07:23;;;;;;;254.23;32.92;;;11.10;99.90;;;;;;7369157;19;20492;-42
2022/10/14 02:10:07;;;;;;;224.35;32.00;;;11.10;99.90;;;;;;7376825;19;20035;-42
2022/10/14 02:12:44;;;;;;;153.02;28.70;;;11.10;99.90;;;;;;7377224;19;20011;-48
2022/10/14 02:15:27;;;;;;;283.67;35.55;;;11.10;99.90;;;;;;7377564;19;20019;-46
2022/10/14 02:18:39;;;;;;;283.35;37.20;;;11.10;99.90;;;;;;7379617;19;20487;-47
2022/10/14 02:21:34;;;;;;;185.43;27.65;;;11.10;99.90;;;;;;7373874;19;20474;-50
2022/10/14 02:24:21;;;;;;;217.60;32.42;;;11.00;99.90;;;;;;7378897;19;20051;-50
2022/10/14 02:26:49;;;;;;;228.93;34.97;;;11.00;99.90;;;;;;7378914;19;20022;-47
2022/10/14 02:29:19;;;;;;;201.77;32.03;;;11.00;99.90;;;;;;7379088;19;20018;-49
2022/10/14 02:31:47;;;;;;;158.32;29.95;;;11.00;99.90;;;;;;7374949;19;20018;-46
2022/10/14 02:34:17;;;;;;;184.93;29.20;;;11.00;99.90;;;;;;7376773;19;20019;-46
2022/10/14 02:36:45;;;;;;;207.60;29.42;;;11.00;99.90;;;;;;7376954;19;20018;-51
2022/10/14 02:39:15;;;;;;;192.77;26.65;;;10.90;99.90;;;;;;7378168;19;20018;-51
2022/10/14 02:41:42;;;;;;;226.25;29.80;;;10.90;99.90;;;;;;7373875;19;20014;-47
2022/10/14 02:44:08;;;;;;;223.80;30.63;;;10.90;99.90;;;;;;7378662;19;20038;-50
2022/10/14 02:46:34;;;;;;;196.70;29.40;;;10.90;99.90;;;;;;7376230;19;20039;-47
2022/10/14 02:49:01;;;;;;;242.10;33.25;;;10.90;99.90;;;;;;7374641;19;20486;-46
2022/10/14 02:51:27;;;;;;;150.70;28.35;;;10.90;99.90;;;;;;7375746;19;20018;-47
2022/10/14 02:53:56;;;;;;;247.40;36.10;;;10.90;99.90;;;;;;7377950;19;20390;-46
2022/10/14 02:56:24;;;;;;;243.63;35.15;;;10.90;99.90;;;;;;7375896;19;20023;-47
2022/10/14 02:58:51;;;;;;;227.45;32.60;;;10.90;99.90;;;;;;7375136;19;20015;-47
2022/10/14 03:01:17;;;;;;;229.93;32.88;;;10.90;99.90;;;;;;7376159;19;20029;-47
2022/10/14 03:03:44;;;;;;;168.90;27.20;;;10.90;99.90;;;;;;7377673;19;20030;-47
2022/10/14 03:06:13;;;;;;;180.07;26.63;;;10.90;99.90;;;;;;7374306;19;20428;-46
2022/10/14 03:08:39;;;;;;;219.00;31.75;;;10.90;99.90;;;;;;7375138;19;20500;-50
2022/10/14 03:11:07;;;;;;;265.77;33.45;;;10.90;99.90;;;;;;7377994;19;20515;-47
2022/10/14 03:13:34;;;;;;;263.25;34.20;;;10.90;99.90;;;;;;7377879;19;20031;-49
2022/10/14 03:16:00;;;;;;;232.80;30.77;;;10.80;99.90;;;;;;7375344;19;20018;-50
2022/10/14 03:18:26;;;;;;;196.25;29.50;;;10.80;99.90;;;;;;7376740;19;20021;-46
2022/10/14 03:20:58;;;;;;;;;;;10.80;99.90;;;;;;7374297;19;20018;-45
2022/10/14 03:23:31;;;;;;;178.68;29.08;;;10.90;99.90;;;;;;7377747;19;19915;-48
2022/10/14 03:25:58;;;;;;;252.02;33.45;;;10.80;99.90;;;;;;7376190;19;20400;-49
2022/10/14 03:28:28;;;;;;;220.85;32.85;;;10.80;99.90;;;;;;7376050;19;20078;-50
2022/10/14 03:31:03;;;;;;;170.10;29.38;;;10.80;99.90;;;;;;7374718;19;20112;-51
2022/10/14 03:34:05;;;;;;;150.00;30.52;;;10.80;99.90;;;;;;7376900;19;20014;-41
2022/10/14 03:36:31;;;;;;;211.73;31.40;;;10.80;99.90;;;;;;7376505;19;20033;-41
2022/10/14 03:38:58;;;;;;;195.68;31.48;;;10.90;99.90;;;;;;7376974;19;20517;-41
2022/10/14 03:41:33;;;;;;;269.95;39.47;;;10.90;99.90;;;;;;7376872;19;20018;-41
2022/10/14 03:44:00;;;;;;;257.20;38.70;;;10.90;99.90;;;;;;7372739;19;20014;-42
2022/10/14 03:46:26;;;;;;;241.65;40.22;;;11.00;99.90;;;;;;7373640;19;20018;-41
2022/10/14 03:48:53;;;;;;;198.48;39.33;;;11.00;99.90;;;;;;7375551;19;20019;-41
2022/10/14 03:51:20;;;;;;;134.65;31.90;;;11.00;99.90;;;;;;7371129;19;20022;-40
2022/10/14 03:53:46;;;;;;;185.38;37.25;;;11.00;99.90;;;;;;7376062;19;20022;-49
2022/10/14 03:56:17;;;;;;;153.63;34.58;;;11.00;99.90;;;;;;7375056;19;20109;-41
2022/10/14 03:58:46;;;;;;;167.25;34.92;;;11.00;99.90;;;;;;7371648;19;20050;-42
2022/10/14 04:01:16;;;;;;;157.30;32.95;;;11.00;99.90;;;;;;7376124;19;20007;-50
2022/10/14 04:04:03;;;;;;;180.98;34.35;;;11.00;99.90;;;;;;7374890;19;20596;-41
2022/10/14 04:06:30;;;;;;;154.80;32.67;;;11.00;99.90;;;;;;7375050;19;20597;-41
2022/10/14 04:08:58;;;;;;;184.05;35.97;;;11.00;99.90;;;;;;7374483;19;20011;-40
2022/10/14 04:11:30;;;;;;;186.13;35.15;;;11.00;99.90;;;;;;7371487;19;20010;-42
2022/10/14 04:14:03;;;;;;;210.90;39.22;;;11.00;99.90;;;;;;7374432;19;20007;-49
2022/10/14 04:16:31;;;;;;;241.90;38.63;;;11.00;99.90;;;;;;7375959;19;20018;-40
2022/10/14 04:19:07;;;;;;;249.93;40.85;;;11.00;99.90;;;;;;7375441;19;20036;-43
2022/10/14 04:21:33;;;;;;;199.35;38.42;;;11.10;99.90;;;;;;7374756;19;20022;-41
2022/10/14 04:23:59;;;;;;;176.65;36.40;;;11.10;99.90;;;;;;7375601;19;20014;-43
2022/10/14 04:26:43;;;;;;;190.43;39.22;;;11.10;99.90;;;;;;7374730;19;20035;-40
2022/10/14 04:29:20;;;;;;;161.95;36.75;;;11.10;99.90;;;;;;7371649;19;20050;-41
2022/10/14 04:31:54;;;;;;;189.18;40.25;;;11.00;99.90;;;;;;7371674;19;20600;-40
2022/10/14 04:34:21;;;;;;;204.27;39.17;;;11.10;99.90;;;;;;7373320;19;20569;-41
2022/10/14 04:36:48;;;;;;;191.27;36.03;;;11.10;99.90;;;;;;7375754;19;20482;-42
2022/10/14 04:39:25;;;;;;;163.13;35.72;;;11.20;99.90;;;;;;7370119;19;20026;-41
2022/10/14 04:41:52;;;;;;;176.68;37.83;;;11.10;99.90;;;;;;7373569;19;20023;-40
2022/10/14 04:44:20;;;;;;;177.13;38.22;;;11.10;99.90;;;;;;7371549;19;20519;-40
2022/10/14 04:46:49;;;;;;;151.45;33.72;;;11.20;99.90;;;;;;7371538;19;20025;-42
2022/10/14 04:49:18;;;;;;;137.63;35.28;;;11.20;99.90;;;;;;7371998;19;20501;-43
2022/10/14 04:51:53;;;;;;;208.60;37.92;;;11.20;99.90;;;;;;7368953;19;20051;-52
2022/10/14 04:54:38;;;;;;;170.23;34.38;;;11.20;99.90;;;;;;7371809;19;20014;-50
2022/10/14 04:57:04;;;;;;;160.55;35.80;;;11.20;99.90;;;;;;7370647;19;20023;-50
2022/10/14 04:59:30;;;;;;;212.70;39.00;;;11.20;99.90;;;;;;7370653;19;20500;-50
2022/10/14 05:02:32;;;;;;;193.07;38.60;;;11.20;99.90;;;;;;7370685;19;20025;-41
2022/10/14 05:05:00;;;;;;;199.02;38.72;;;11.20;99.90;;;;;;7369476;19;20380;-47
2022/10/14 05:07:30;;;;;;;181.00;37.78;;;11.20;99.90;;;;;;7371126;19;20018;-50
2022/10/14 05:10:09;;;;;;;175.90;36.47;;;11.20;99.90;;;;;;7368736;19;20025;-50
2022/10/14 05:12:42;;;;;;;172.98;37.67;;;11.10;99.90;;;;;;7363948;19;20014;-49
2022/10/14 05:15:09;;;;;;;226.88;42.42;;;11.20;99.90;;;;;;7363354;19;20019;-49
2022/10/14 05:17:47;;;;;;;210.65;40.05;;;11.20;99.90;;;;;;7370267;19;20015;-50
2022/10/14 05:20:17;;;;;;;257.85;40.58;;;11.20;99.90;;;;;;7369384;19;20022;-48
2022/10/14 05:22:48;;;;;;;173.07;38.88;;;11.20;99.90;;;;;;7370224;19;20019;-50
2022/10/14 05:25:15;;;;;;;104.95;31.63;;;11.20;99.90;;;;;;7371797;19;20354;-50
2022/10/14 05:27:42;;;;;;;153.70;36.35;;;11.20;99.90;;;;;;7372113;19;20006;-49
2022/10/14 05:30:10;;;;;;;118.68;40.30;;;11.20;99.90;;;;;;7372544;19;20537;-47
2022/10/14 05:32:42;;;;;;;143.43;35.67;;;11.20;99.90;;;;;;7369499;19;20143;-49
2022/10/14 05:35:08;;;;;;;127.25;34.15;;;11.20;99.90;;;;;;7372722;19;20022;-49
2022/10/14 05:37:38;;;;;;;107.82;33.72;;;11.20;99.90;;;;;;7370565;19;20042;-51
2022/10/14 05:40:05;;;;;;;92.65;32.65;;;11.20;99.90;;;;;;7369032;19;20483;-47
2022/10/14 05:42:34;;;;;;;107.88;35.00;;;11.20;99.90;;;;;;7371955;19;20097;-49
2022/10/14 05:45:01;;;;;;;121.88;35.53;;;11.20;99.90;;;;;;7379250;19;20394;-46
2022/10/14 05:47:30;;;;;;;130.43;42.50;;;11.20;99.90;;;;;;7381058;19;20026;-48
2022/10/14 05:50:02;;;;;;;125.28;40.85;;;11.20;99.90;;;;;;7380599;19;20574;-49
2022/10/14 05:52:31;;;;;;;138.43;40.78;;;11.20;99.90;;;;;;7375442;19;20022;-48
2022/10/14 05:54:59;;;;;;;152.43;40.97;;;11.20;99.90;;;;;;7378543;19;20018;-51
2022/10/14 05:57:27;;;;;;;133.43;41.97;;;11.20;99.90;;;;;;7375479;19;20018;-50
2022/10/14 05:59:54;;;;;;;148.15;44.15;;;11.10;99.90;;;;;;7379939;19;20018;-49
2022/10/14 06:02:20;;;;;;;147.50;46.10;;;11.10;99.90;;;;;;7375143;19;20060;-49
2022/10/14 06:04:47;;;;;;;161.32;45.40;;;11.20;99.90;;;;;;7379252;19;20019;-51
2022/10/14 06:07:13;;;;;;;170.32;48.95;;;11.20;99.90;;;;;;7375426;19;20035;-47
2022/10/14 06:09:40;;;;;;;163.07;49.33;;;11.20;99.90;;;;;;7375783;19;20039;-50
2022/10/14 06:12:09;;;;;;;156.95;50.08;;;11.20;99.90;;;;;;7373630;19;20031;-47
2022/10/14 06:14:37;;;;;;;138.70;47.40;;;11.20;99.90;;;;;;7370990;19;20394;-48
2022/10/14 06:17:04;;;;;;;147.35;50.38;;;11.20;99.90;;;;;;7375378;19;20018;-47
2022/10/14 06:19:32;;;;;;;121.60;50.45;;;11.20;99.90;;;;;;7368830;19;20018;-47
2022/10/14 06:21:58;;;;;;;118.32;60.92;;;11.20;99.90;;;;;;7370205;19;20035;-48
2022/10/14 06:24:24;;;;;;;126.55;54.40;;;11.30;99.90;;;;;;7371425;19;20386;-46
2022/10/14 06:26:51;;;;;;;116.82;45.42;;;11.30;99.90;;;;;;7376818;19;20022;-47
2022/10/14 06:29:17;;;;;;;112.85;44.15;;;11.30;99.90;;;;;;7378093;19;20026;-49
2022/10/14 06:31:44;;;;;;;106.38;44.38;;;11.40;99.90;;;;;;7371442;19;20018;-49
2022/10/14 06:34:11;;;;;;;91.18;38.50;;;11.40;99.90;;;;;;7368978;19;20782;-47
2022/10/14 06:36:37;;;;;;;87.28;38.03;;;11.40;99.90;;;;;;7373590;19;20022;-47
2022/10/14 06:39:04;;;;;;;89.35;38.92;;;11.40;99.90;;;;;;7373648;19;20022;-47
2022/10/14 06:41:31;;;;;;;87.55;37.53;;;11.40;99.90;;;;;;7369498;19;20432;-48
2022/10/14 06:43:58;;;;;;;84.50;35.85;;;11.40;99.90;;;;;;7371526;19;20393;-47
2022/10/14 06:46:24;;;;;;;82.20;34.83;;;11.40;99.90;;;;;;7368346;19;20430;-50
2022/10/14 06:48:51;;;;;;;85.22;38.28;;;11.50;99.90;;;;;;7371746;19;20018;-47
2022/10/14 06:51:17;;;;;;;92.72;36.63;;;11.60;99.90;;;;;;7371389;19;20034;-47
2022/10/14 06:53:43;;;;;;;82.45;35.95;;;11.50;99.90;;;;;;7372884;19;20029;-48
2022/10/14 06:56:10;;;;;;;73.63;34.28;;;11.60;99.90;;;;;;7372127;19;20022;-48
2022/10/14 06:58:37;;;;;;;68.78;34.65;;;11.60;99.90;;;;;;7371975;19;20018;-55
2022/10/14 07:01:05;;;;;;;68.97;33.88;;;11.60;99.90;;;;;;7370523;19;20105;-49
2022/10/14 07:03:35;;;;;;;68.93;34.00;;;11.70;99.90;;;;;;7371009;19;20025;-46
2022/10/14 07:06:06;;;;;;;67.63;32.60;;;11.70;99.90;;;;;;7370911;19;20026;-51
2022/10/14 07:08:32;;;;;;;63.78;32.60;;;11.70;99.90;;;;;;7369188;19;20026;-46
2022/10/14 07:10:59;;;;;;;60.78;32.15;;;11.60;99.90;;;;;;7371403;19;20031;-46
2022/10/14 07:13:25;;;;;;;64.07;31.42;;;11.70;99.90;;;;;;7365029;19;20489;-50
2022/10/14 07:15:53;;;;;;;56.83;30.58;;;11.70;99.90;;;;;;7366726;19;20368;-50
2022/10/14 07:18:19;;;;;;;63.05;31.92;;;11.70;99.90;;;;;;7369342;19;20023;-49
2022/10/14 07:20:45;;;;;;;59.88;30.65;;;11.80;99.90;;;;;;7367753;19;20015;-48
2022/10/14 07:23:12;;;;;;;55.90;30.83;;;11.70;99.90;;;;;;7369559;19;20573;-47
2022/10/14 07:25:38;;;;;;;56.95;30.77;;;11.80;99.90;;;;;;7370707;19;20014;-49
2022/10/14 07:28:05;;;;;;;57.25;32.65;;;11.70;99.90;;;;;;7370082;19;20014;-47
2022/10/14 07:30:31;;;;;;;64.93;32.13;;;11.80;99.90;;;;;;7370907;19;20022;-48
2022/10/14 07:32:58;;;;;;;59.42;32.80;;;11.80;99.90;;;;;;7367182;19;20046;-48
2022/10/14 07:35:25;;;;;;;53.50;31.15;;;11.90;99.90;;;;;;7372876;19;20487;-47
2022/10/14 07:37:52;;;;;;;61.65;31.27;;;11.80;99.90;;;;;;7371084;19;20017;-49
2022/10/14 07:40:19;;;;;;;53.95;30.60;;;11.90;99.90;;;;;;7369694;19;20439;-48
2022/10/14 07:42:46;;;;;;;51.80;31.08;;;11.90;99.90;;;;;;7371882;19;20022;-48
2022/10/14 07:45:17;;;;;;;57.00;30.77;;;12.00;99.90;;;;;;7369304;19;20015;-55
2022/10/14 07:47:46;;;;;;;59.03;32.30;;;12.00;99.90;;;;;;7370121;19;20683;-47
2022/10/14 07:50:12;;;;;;;54.00;29.73;;;12.00;99.90;;;;;;7372027;19;20014;-49
2022/10/14 07:52:38;;;;;;;52.28;31.80;;;12.00;99.90;;;;;;7368444;19;20478;-49
2022/10/14 07:55:06;;;;;;;54.85;33.38;;;12.10;99.90;;;;;;7370316;19;20367;-48
2022/10/14 07:57:32;;;;;;;60.05;31.15;;;12.10;99.90;;;;;;7369881;19;20580;-48
2022/10/14 07:59:58;;;;;;;55.10;31.90;;;12.10;99.90;;;;;;7367532;19;20015;-48
2022/10/14 08:02:24;;;;;;;51.80;31.80;;;12.20;99.90;;;;;;7370651;19;20025;-47
2022/10/14 08:04:53;;;;;;;53.33;31.60;;;12.30;99.90;;;;;;7371391;19;20022;-50
2022/10/14 08:07:20;;;;;;;54.78;31.85;;;12.30;99.90;;;;;;7369286;19;20061;-47
2022/10/14 08:09:46;;;;;;;50.78;31.88;;;12.30;99.90;;;;;;7371214;19;20374;-50
2022/10/14 08:12:13;;;;;;;56.17;32.90;;;12.40;99.90;;;;;;7371342;19;20026;-49
2022/10/14 08:14:39;;;;;;;52.95;31.70;;;12.40;99.90;;;;;;7367444;19;20628;-55
2022/10/14 08:17:06;;;;;;;60.38;32.90;;;12.50;99.90;;;;;;7371489;19;20018;-48
2022/10/14 08:19:32;;;;;;;61.58;32.72;;;12.50;99.90;;;;;;7369645;19;20027;-48
2022/10/14 08:21:59;;;;;;;56.05;32.72;;;12.50;99.90;;;;;;7368918;19;20019;-52
2022/10/14 08:24:25;;;;;;;58.05;35.55;;;12.50;99.90;;;;;;7371439;19;20574;-51
2022/10/14 08:26:56;;;;;;;65.65;35.13;;;12.50;99.90;;;;;;7369587;19;20113;-50
2022/10/14 08:29:23;;;;;;;58.88;32.78;;;12.60;99.90;;;;;;7371259;19;20023;-49
2022/10/14 08:31:51;;;;;;;60.40;35.45;;;12.70;99.90;;;;;;7369352;19;20025;-47
2022/10/14 08:34:20;;;;;;;53.65;33.58;;;12.70;99.90;;;;;;7371319;19;20015;-47
2022/10/14 08:36:47;;;;;;;59.92;35.05;;;12.70;99.90;;;;;;7366887;19;20026;-50
2022/10/14 08:39:17;;;;;;;56.28;32.33;;;12.70;99.90;;;;;;7368415;19;20035;-38
2022/10/14 08:42:15;;;;;;;58.25;34.05;;;12.60;99.90;;;;;;7371949;19;20391;-38
2022/10/14 08:44:50;;;;;;;55.60;33.63;;;12.70;99.90;;;;;;7368275;19;20022;-39
2022/10/14 08:47:22;;;;;;;52.28;32.67;;;12.70;99.90;;;;;;7365453;19;20019;-38
2022/10/14 08:49:49;;;;;;;61.67;35.42;;;12.80;99.90;;;;;;7372750;19;20018;-39
2022/10/14 08:52:18;;;;;;;57.28;34.47;;;12.80;99.90;;;;;;7370318;19;20014;-39
2022/10/14 08:54:54;;;;;;;53.78;33.83;;;12.70;99.90;;;;;;7369628;19;20026;-38
2022/10/14 08:57:25;;;;;;;57.53;34.08;;;12.70;99.90;;;;;;7369097;19;20018;-39
2022/10/14 08:59:51;;;;;;;60.28;36.03;;;12.70;99.90;;;;;;7367322;19;20064;-39
2022/10/14 09:02:42;;;;;;;55.05;33.20;;;12.80;99.90;;;;;;7368933;19;20070;-39
2022/10/14 09:05:26;;;;;;;67.18;35.55;;;12.80;99.90;;;;;;7367415;19;20086;-39
2022/10/14 09:07:55;;;;;;;69.35;37.53;;;12.80;99.90;;;;;;7373623;19;20022;-38
2022/10/14 09:10:35;;;;;;;74.47;37.83;;;12.80;99.90;;;;;;7366594;19;20486;-40
2022/10/14 09:13:15;;;;;;;65.93;37.47;;;12.90;99.90;;;;;;7368341;19;20026;-38
2022/10/14 09:15:53;;;;;;;74.13;38.38;;;12.90;99.90;;;;;;7368059;19;20094;-39
2022/10/14 09:18:28;;;;;;;75.32;38.92;;;12.90;99.90;;;;;;7368539;19;20589;-38
2022/10/14 09:20:57;;;;;;;75.60;38.47;;;12.90;99.90;;;;;;7367342;19;20022;-38
2022/10/14 09:23:26;;;;;;;89.13;41.00;;;12.80;99.90;;;;;;7370503;19;20019;-37
2022/10/14 09:26:04;;;;;;;91.68;46.33;;;12.90;99.90;;;;;;7366444;19;20022;-51
2022/10/14 09:28:35;;;;;;;103.15;47.75;;;12.90;99.90;;;;;;7363506;19;20478;-38
2022/10/14 09:31:02;;;;;;;106.72;50.33;;;12.90;99.90;;;;;;7363703;19;20889;-38
2022/10/14 09:33:29;;;;;;;110.40;49.95;;;12.90;99.90;;;;;;7360815;19;20442;-38
2022/10/14 09:35:56;;;;;;;123.55;49.58;;;12.90;99.90;;;;;;7366566;19;20458;-38
2022/10/14 09:38:24;;;;;;;100.25;44.35;;;12.90;99.90;;;;;;7366888;19;20022;-38
2022/10/14 09:40:55;;;;;;;99.15;43.15;;;12.90;99.90;;;;;;7364392;19;20018;-37
2022/10/14 09:43:23;;;;;;;109.53;43.27;;;12.90;99.90;;;;;;7365424;19;20645;-38
2022/10/14 09:45:59;;;;;;;102.55;42.78;;;12.90;99.90;;;;;;7359321;19;20019;-37
2022/10/14 09:48:31;;;;;;;110.88;41.78;;;12.90;99.90;;;;;;7359400;19;20023;-38
2022/10/14 09:51:00;;;;;;;101.90;41.50;;;12.90;99.90;;;;;;7358919;19;20745;-38
2022/10/14 09:53:33;;;;;;;118.45;42.72;;;12.90;99.90;;;;;;7359442;19;20706;-37
2022/10/14 09:56:02;;;;;;;122.53;44.70;;;12.90;99.90;;;;;;7360918;19;20025;-37
2022/10/14 09:58:45;;;;;;;95.63;38.88;;;12.90;99.90;;;;;;7363513;19;20010;-37
2022/10/14 10:01:20;;;;;;;117.82;42.65;;;12.90;99.90;;;;;;7359540;19;20018;-37
2022/10/14 10:03:48;;;;;;;112.07;42.20;;;12.90;99.90;;;;;;7363283;19;20078;-37
2022/10/14 10:06:19;;;;;;;106.70;40.28;;;12.90;99.90;;;;;;7362835;19;20023;-37
2022/10/14 10:08:54;;;;;;;97.60;37.63;;;12.80;99.90;;;;;;7364430;19;20019;-38
2022/10/14 10:11:34;;;;;;;78.90;31.33;;;12.90;99.90;;;;;;7361096;19;20759;-38
2022/10/14 10:14:19;;;;;;;103.32;37.38;;;12.90;99.90;;;;;;7356825;19;20101;-38
2022/10/14 10:16:46;;;;;;;111.43;40.08;;;12.90;99.90;;;;;;7358272;19;20258;-38
2022/10/14 10:19:28;;;;;;;106.93;35.83;;;12.90;99.90;;;;;;7362270;19;20010;-38
2022/10/14 10:22:15;;;;;;;92.82;35.33;;;12.90;99.90;;;;;;7364423;19;20050;-38
2022/10/14 10:24:43;;;;;;;87.70;34.05;;;12.90;99.90;;;;;;7361510;19;20030;-38
2022/10/14 10:27:23;;;;;;;95.93;33.78;;;12.90;99.90;;;;;;7363669;19;20023;-39
2022/10/14 10:29:50;;;;;;;111.10;36.53;;;13.00;99.90;;;;;;7361573;19;20520;-39
2022/10/14 10:32:47;;;;;;;82.18;33.25;;;13.00;99.90;;;;;;7367853;19;20019;-39
2022/10/14 10:35:46;;;;;;;102.80;35.85;;;12.90;99.90;;;;;;7368118;19;20018;-38
2022/10/14 10:38:38;;;;;;;84.55;29.05;;;13.00;99.90;;;;;;7371759;19;20494;-40
2022/10/14 10:41:39;;;;;;;89.70;33.08;;;13.00;99.90;;;;;;7369828;19;20848;-39
2022/10/14 10:44:24;;;;;;;73.18;31.17;;;13.00;99.90;;;;;;7372704;19;20383;-39
2022/10/14 10:46:51;;;;;;;78.35;30.65;;;12.90;99.90;;;;;;7364254;19;20034;-38
2022/10/14 10:49:26;;;;;;;75.88;30.45;;;13.00;99.90;;;;;;7368773;19;20014;-39
2022/10/14 10:52:00;;;;;;;64.72;28.73;;;13.00;99.90;;;;;;7370317;19;20019;-38
2022/10/14 10:54:35;;;;;;;87.45;32.60;;;13.00;99.90;;;;;;7368260;19;20014;-39
2022/10/14 10:57:44;;;;;;;93.90;33.67;;;13.00;99.90;;;;;;7364244;19;20018;-39
2022/10/14 11:00:19;;;;;;;71.93;31.42;;;13.00;99.90;;;;;;7363250;19;20043;-40
2022/10/14 11:03:00;;;;;;;85.15;31.52;;;13.00;99.90;;;;;;7364728;19;20100;-39
2022/10/14 11:05:47;;;;;;;89.95;32.05;;;13.10;99.90;;;;;;7364130;19;20021;-39
2022/10/14 11:14:41;;;;;;;84.10;31.27;;;13.10;99.90;;;;;;7365057;19;20022;-38
2022/10/14 11:17:23;;;;;;;82.13;32.83;;;13.10;99.90;;;;;;7365410;19;20022;-39
2022/10/14 11:19:58;;;;;;;88.05;34.33;;;13.20;99.90;;;;;;7365929;19;20014;-39
2022/10/14 11:22:50;;;;;;;80.18;32.50;;;13.30;99.90;;;;;;7360267;19;20048;-40
2022/10/14 11:25:30;;;;;;;109.95;36.85;;;13.30;99.90;;;;;;7366097;19;20022;-39
2022/10/14 11:28:21;;;;;;;118.80;39.30;;;13.40;99.90;;;;;;7364082;19;20381;-39
2022/10/14 11:30:55;;;;;;;;;;;13.40;99.90;;;;;;7366664;19;20022;-39
2022/10/14 11:33:38;;;;;;;124.43;43.35;;;13.40;99.90;;;;;;7361354;19;20635;-39
2022/10/14 11:36:22;;;;;;;105.82;40.38;;;13.40;99.90;;;;;;7364281;19;20446;-39
2022/10/14 11:39:36;;;;;;;129.88;46.17;;;13.40;99.90;;;;;;7362646;19;20021;-39
2022/10/14 11:42:23;;;;;;;139.27;47.40;;;13.50;99.90;;;;;;7361585;19;20018;-38
2022/10/14 11:45:27;;;;;;;151.25;47.38;;;13.60;99.90;;;;;;7362389;19;20025;-39
2022/10/14 11:48:12;;;;;;;154.55;47.65;;;13.70;99.90;;;;;;7367097;19;20038;-39
2022/10/14 11:50:45;;;;;;;147.40;50.88;;;13.70;99.90;;;;;;7366371;19;20482;-39
2022/10/14 11:53:19;;;;;;;128.68;49.30;;;13.70;99.90;;;;;;7366719;19;20021;-39
2022/10/14 11:55:57;;;;;;;135.52;51.60;;;13.70;99.90;;;;;;7368600;19;20015;-39
2022/10/14 11:58:26;;;;;;;171.13;55.47;;;13.70;99.90;;;;;;7370921;19;20069;-38
2022/10/14 12:00:56;;;;;;;147.68;53.95;;;13.70;99.90;;;;;;7369830;19;20015;-39
2022/10/14 12:03:50;;;;;;;165.55;54.53;;;13.70;99.90;;;;;;7371271;19;20026;-40
2022/10/14 12:06:28;;;;;;;185.77;57.67;;;13.80;99.90;;;;;;7370825;19;20062;-39
2022/10/14 12:09:35;;;;;;;171.55;61.65;;;13.80;99.90;;;;;;7371593;19;20358;-38
2022/10/14 12:12:06;;;;;;;152.82;55.95;;;13.90;99.90;;;;;;7365304;19;20022;-39
2022/10/14 12:14:57;;;;;;;147.57;62.03;;;13.90;99.90;;;;;;7366060;19;20029;-39
2022/10/14 12:17:45;;;;;;;159.88;56.22;;;14.00;99.90;;;;;;7369890;19;20019;-39
2022/10/14 12:20:31;;;;;;;161.70;57.00;;;14.00;99.90;;;;;;7361573;19;20018;-39
2022/10/14 12:23:00;;;;;;;135.13;53.15;;;14.00;99.90;;;;;;7369078;19;20394;-38
2022/10/14 12:25:35;;;;;;;170.45;55.65;;;14.00;99.90;;;;;;7358097;19;20119;-39
2022/10/14 12:28:02;;;;;;;116.90;50.72;;;14.10;99.90;;;;;;7367449;19;20022;-40
2022/10/14 12:30:35;;;;;;;164.82;56.70;;;14.10;99.90;;;;;;7359682;19;20018;-38
2022/10/14 12:33:07;;;;;;;102.50;48.53;;;14.10;99.90;;;;;;7367846;19;20078;-39
2022/10/14 12:35:59;;;;;;;144.52;52.50;;;14.20;99.90;;;;;;7366945;19;20501;-39
2022/10/14 12:38:28;;;;;;;98.60;44.58;;;14.30;99.90;;;;;;7365882;19;20052;-39
2022/10/14 12:41:32;;;;;;;110.18;48.17;;;14.30;99.90;;;;;;7367689;19;20494;-40
2022/10/14 12:44:03;;;;;;;112.03;47.95;;;14.40;99.90;;;;;;7362386;19;20039;-39
2022/10/14 12:46:30;;;;;;;109.78;46.60;;;14.40;99.90;;;;;;7363864;19;20018;-41
2022/10/14 12:48:59;;;;;;;85.38;43.00;;;14.50;99.90;;;;;;7360837;19;20018;-40
2022/10/14 12:51:26;;;;;;;78.85;40.88;;;14.60;99.90;;;;;;7364631;19;20040;-40
2022/10/14 12:54:03;;;;;;;75.63;38.78;;;14.60;99.90;;;;;;7360714;19;20086;-40
2022/10/14 12:57:14;;;;;;;63.90;37.67;;;14.70;99.90;;;;;;7361845;19;20014;-40
2022/10/14 12:59:41;;;;;;;65.50;36.80;;;14.70;99.90;;;;;;7366932;19;20026;-39